CheckWX is a tool to help pilots better visualize weather data.  It is not intended as a substitute for an official pre-flight weather briefing.

15:30:21 UTC

KBAF TAF
Westfield-Barnes Regional Airport
Westfield/Springfield, Massachusetts, USA
KBAF 171130Z 1712/1812 17003KT P6SM OVC005 FM171400 16003KT P6SM BKN010 FM171500 17004KT P6SM BKN020 FM171700 17003KT P6SM BKN035 FM180200 18004KT P6SM VCSH BKN025 FM180600 18003KT P6SM BKN045 FM180900 18003KT P6SM VCSH BKN028

Aug-17@
12:00 UTC

Aug-17 @ 12:00 UTC

Aug-17@
14:00 UTC

Aug-17 @ 14:00 UTC

KBAF 171130Z 1712/1812 17003KT P6SM OVC005

Expired

Wind
  • 170° at 3 KTS
Cloud Levels
  • Overcast at 500' AGL

Aug-17@
14:00 UTC

Aug-17 @ 14:00 UTC

Aug-17@
15:00 UTC

Aug-17 @ 15:00 UTC

FM171400 16003KT P6SM BKN010

Expired

Wind
  • 160° at 3 KTS
Cloud Levels
  • Broken at 1,000' AGL

Aug-17@
15:00 UTC

Aug-17 @ 15:00 UTC

Aug-17@
17:00 UTC

Aug-17 @ 17:00 UTC

FM171500 17004KT P6SM BKN020

From

From Standard forecast or significant change

Wind
  • 170° at 4 KTS
Cloud Levels
  • Broken at 2,000' AGL

Aug-17@
17:00 UTC

Aug-17 @ 17:00 UTC

Aug-18@
02:00 UTC

Aug-18 @ 02:00 UTC

FM171700 17003KT P6SM BKN035

From

From Standard forecast or significant change

Wind
  • 170° at 3 KTS
Cloud Levels
  • Broken at 3,500' AGL

Aug-18@
02:00 UTC

Aug-18 @ 02:00 UTC

Aug-18@
06:00 UTC

Aug-18 @ 06:00 UTC

FM180200 18004KT P6SM VCSH BKN025

From

From Standard forecast or significant change

Wind
  • 180° at 4 KTS
Cloud Levels
  • Broken at 2,500' AGL

Aug-18@
06:00 UTC

Aug-18 @ 06:00 UTC

Aug-18@
09:00 UTC

Aug-18 @ 09:00 UTC

FM180600 18003KT P6SM BKN045

From

From Standard forecast or significant change

Wind
  • 180° at 3 KTS
Cloud Levels
  • Broken at 4,500' AGL

Aug-18@
09:00 UTC

Aug-18 @ 09:00 UTC

Aug-18@
12:00 UTC

Aug-18 @ 12:00 UTC

FM180900 18003KT P6SM VCSH BKN028

From

From Standard forecast or significant change

Wind
  • 180° at 3 KTS
Cloud Levels
  • Broken at 2,800' AGL